Time;durP1;ratioP1;P1;durP2;ratioP2;P2;SDS_P1;SDS_P2;PMS_P1;PMS_P2;Temp;Humidity;BMP_temperature;BMP_pressure;BME280_temperature;BME280_humidity;BME280_pressure;Samples;Min_cycle;Max_cycle;Signal;HPM_P1;HPM_P2
2021/06/08 00:01:09;;;;;;;8.15;4.10;;;;;;;20.83;52.87;101958.13;5052123;28;20053;-75
2021/06/08 00:03:36;;;;;;;7.22;4.25;;;;;;;20.82;53.03;101959.16;5035415;28;20073;-76
2021/06/08 00:06:03;;;;;;;7.45;4.32;;;;;;;20.82;53.05;101967.25;5018867;28;20124;-76
2021/06/08 00:08:30;;;;;;;7.53;4.28;;;;;;;20.83;52.96;101959.97;5052850;28;20129;-76
2021/06/08 00:10:56;;;;;;;7.65;4.15;;;;;;;20.82;52.94;101956.47;5050646;28;20516;-76
2021/06/08 00:13:23;;;;;;;7.40;4.25;;;;;;;20.82;53.04;101951.06;5052936;28;20128;-76
2021/06/08 00:15:50;;;;;;;7.53;4.13;;;;;;;20.81;53.08;101953.94;5052876;28;20498;-75
2021/06/08 00:18:17;;;;;;;7.03;4.10;;;;;;;20.80;53.14;101945.03;5002448;28;20091;-76
2021/06/08 00:20:43;;;;;;;7.03;3.92;;;;;;;20.82;53.12;101953.75;5052878;28;20041;-76
2021/06/08 00:23:10;;;;;;;7.30;4.30;;;;;;;20.79;53.02;101956.88;5052315;28;20044;-75
2021/06/08 00:25:38;;;;;;;7.50;4.40;;;;;;;20.81;53.09;101953.94;5070529;28;20048;-76
2021/06/08 00:28:07;;;;;;;7.13;4.10;;;;;;;20.82;53.01;101952.94;5070966;28;20037;-76
2021/06/08 00:30:35;;;;;;;7.13;4.03;;;;;;;20.81;52.94;101952.09;5071208;28;20098;-76
2021/06/08 00:33:02;;;;;;;7.10;4.32;;;;;;;20.81;53.14;101943.16;5055510;28;20057;-76
2021/06/08 00:35:30;;;;;;;8.65;4.05;;;;;;;20.81;53.31;101954.81;5073376;28;20075;-76
2021/06/08 00:37:57;;;;;;;7.38;4.22;;;;;;;20.80;53.29;101950.44;5073631;28;20041;-76
2021/06/08 00:40:27;;;;;;;7.47;4.30;;;;;;;20.80;53.18;101958.50;5071957;28;20055;-76
2021/06/08 00:42:55;;;;;;;6.97;4.00;;;;;;;20.82;53.04;101953.75;5071833;28;20048;-76
2021/06/08 00:45:23;;;;;;;7.22;4.20;;;;;;;20.81;53.29;101952.09;5055783;28;20060;-76
2021/06/08 00:47:51;;;;;;;6.80;4.07;;;;;;;20.81;52.98;101952.09;5055032;28;20041;-76
2021/06/08 00:50:19;;;;;;;7.45;4.10;;;;;;;20.81;53.13;101952.09;5022533;28;20052;-76
2021/06/08 00:52:51;;;;;;;6.60;3.85;;;;;;;20.81;53.35;101949.41;5056435;28;20048;-76
2021/06/08 00:55:19;;;;;;;7.20;3.80;;;;;;;20.79;53.19;101943.38;5039300;28;20037;-76
2021/06/08 00:57:48;;;;;;;6.97;4.18;;;;;;;20.79;53.09;101942.53;5054303;28;20053;-76
2021/06/08 01:00:15;;;;;;;6.97;4.03;;;;;;;20.82;53.21;101945.66;5039149;28;20045;-76
2021/06/08 01:02:42;;;;;;;8.20;4.60;;;;;;;20.78;52.96;101938.19;5056232;28;20409;-76
2021/06/08 01:05:10;;;;;;;7.10;4.03;;;;;;;20.82;53.12;101950.25;5054031;28;20106;-76
2021/06/08 01:07:37;;;;;;;6.93;4.10;;;;;;;20.82;53.01;101948.38;5054515;28;20037;-76
2021/06/08 01:10:06;;;;;;;7.05;4.28;;;;;;;20.77;53.01;101941.88;5054820;28;20045;-76
2021/06/08 01:12:33;;;;;;;7.78;4.30;;;;;;;20.82;53.31;101944.84;5038310;28;20041;-75
2021/06/08 01:15:00;;;;;;;7.13;4.28;;;;;;;20.81;53.12;101940.47;5054944;28;20052;-76
2021/06/08 01:17:27;;;;;;;7.35;4.10;;;;;;;20.82;53.20;101944.84;5021164;28;20041;-76
2021/06/08 01:19:56;;;;;;;6.68;3.95;;;;;;;20.81;53.21;101944.03;5038207;28;20459;-76
2021/06/08 01:22:23;;;;;;;7.63;4.32;;;;;;;20.79;52.99;101940.69;5038407;28;20053;-75
2021/06/08 01:24:51;;;;;;;6.82;3.97;;;;;;;20.81;53.03;101949.41;5054504;28;20155;-76
2021/06/08 01:27:20;;;;;;;6.70;4.10;;;;;;;20.82;52.97;101951.06;5054161;28;20540;-76
2021/06/08 01:29:49;;;;;;;7.70;4.10;;;;;;;20.82;53.04;101947.53;5055563;28;20094;-76
2021/06/08 01:32:21;;;;;;;6.70;3.83;;;;;;;20.79;53.25;101953.31;5054210;28;20045;-76
2021/06/08 01:34:49;;;;;;;7.18;4.05;;;;;;;20.74;53.04;101943.13;5054705;28;20045;-76
2021/06/08 01:37:17;;;;;;;7.43;4.13;;;;;;;20.81;53.11;101960.19;5054336;28;20041;-76
2021/06/08 01:39:46;;;;;;;7.70;4.10;;;;;;;20.81;53.12;101957.50;5038460;28;20049;-75
2021/06/08 01:42:15;;;;;;;7.20;4.13;;;;;;;20.81;53.30;101959.34;5052300;28;20037;-76
2021/06/08 01:44:43;;;;;;;7.22;4.05;;;;;;;20.81;53.16;101953.94;5036771;28;20098;-76
2021/06/08 01:47:11;;;;;;;7.35;3.92;;;;;;;20.80;53.26;101950.44;5037570;28;20143;-76
2021/06/08 01:49:38;;;;;;;7.28;4.35;;;;;;;20.79;53.21;101956.88;5037559;28;20494;-75
2021/06/08 01:52:16;;;;;;;8.13;4.40;;;;;;;20.80;53.21;101952.31;5054057;28;20049;-76
2021/06/08 01:54:53;;;;;;;7.15;3.83;;;;;;;20.79;53.11;101951.47;5053920;28;20103;-76
2021/06/08 01:57:41;;;;;;;8.02;4.40;;;;;;;20.80;53.16;101960.38;5053401;28;20049;-75
2021/06/08 02:00:13;;;;;;;7.47;4.00;;;;;;;20.79;53.15;101959.56;5054124;28;20489;-76
2021/06/08 02:06:17;;;;;;;8.55;4.10;;;;;;;20.78;53.24;101949.78;5063741;28;20405;-75
2021/06/08 02:08:53;;;;;;;6.90;3.97;;;;;;;20.77;53.30;101948.09;5049293;28;20048;-74
2021/06/08 02:11:35;;;;;;;7.00;4.32;;;;;;;20.79;53.20;101950.63;5049032;28;20048;-74
2021/06/08 02:14:08;;;;;;;7.43;4.10;;;;;;;20.77;53.04;101952.69;5049459;28;20091;-76
2021/06/08 02:16:41;;;;;;;7.10;4.00;;;;;;;20.79;53.21;101956.00;5032798;28;20516;-76
2021/06/08 02:19:10;;;;;;;7.68;4.10;;;;;;;20.77;53.32;101953.50;5032744;28;20501;-75
2021/06/08 02:21:43;;;;;;;7.97;4.10;;;;;;;20.78;53.15;101951.66;5032666;28;20046;-76
2021/06/08 02:24:15;;;;;;;7.28;4.13;;;;;;;20.78;53.34;101948.97;5032919;28;20079;-76
2021/06/08 02:26:44;;;;;;;7.03;3.80;;;;;;;20.76;53.35;101945.63;5069859;28;20044;-76
2021/06/08 02:29:14;;;;;;;6.90;4.00;;;;;;;20.77;53.50;101952.69;5052765;28;20071;-75
2021/06/08 02:31:43;;;;;;;6.80;3.88;;;;;;;20.78;53.24;101954.34;5036081;28;20051;-75
2021/06/08 02:34:12;;;;;;;6.88;4.10;;;;;;;20.76;53.46;101953.72;5050585;28;20412;-75
2021/06/08 02:36:40;;;;;;;7.43;4.10;;;;;;;20.77;53.25;101958.06;5070030;28;20120;-75
2021/06/08 02:39:08;;;;;;;7.57;4.00;;;;;;;20.76;53.22;101956.41;5068893;28;20505;-76
2021/06/08 02:41:36;;;;;;;7.20;3.92;;;;;;;20.76;53.43;101956.41;5035718;28;20106;-76
2021/06/08 02:44:04;;;;;;;6.72;3.50;;;;;;;20.76;53.30;101964.50;5028671;28;20069;-76
2021/06/08 02:46:32;;;;;;;7.00;4.03;;;;;;;20.76;53.42;101959.09;5046170;28;20132;-76
2021/06/08 02:49:00;;;;;;;6.85;4.00;;;;;;;20.75;53.34;101960.94;5048545;28;20409;-76
2021/06/08 02:51:28;;;;;;;7.70;3.80;;;;;;;20.74;53.61;101966.53;5048173;28;20132;-76
2021/06/08 02:53:56;;;;;;;6.63;3.78;;;;;;;20.75;53.28;101955.56;5015775;28;20065;-75
2021/06/08 02:56:23;;;;;;;7.20;4.00;;;;;;;20.75;53.59;101955.56;5031860;28;20131;-76
2021/06/08 02:58:51;;;;;;;6.90;3.92;;;;;;;20.75;53.36;101955.56;5048582;28;20047;-76
2021/06/08 03:01:20;;;;;;;7.28;4.13;;;;;;;20.75;53.45;101955.56;5047434;28;20079;-76
2021/06/08 03:03:50;;;;;;;6.78;3.78;;;;;;;20.75;53.36;101969.03;5048770;28;20494;-76
2021/06/08 03:06:22;;;;;;;6.93;4.07;;;;;;;20.75;53.20;101963.66;5031517;28;20068;-76
2021/06/08 03:09:07;;;;;;;7.25;3.72;;;;;;;20.75;53.34;101957.44;5015454;28;20057;-76
2021/06/08 03:11:39;;;;;;;7.05;3.70;;;;;;;20.71;53.54;101951.59;5049454;28;20099;-75
2021/06/08 03:14:10;;;;;;;6.65;3.90;;;;;;;20.73;53.60;101960.31;5049405;28;20091;-76
2021/06/08 03:16:42;;;;;;;7.32;4.20;;;;;;;20.73;53.29;101960.31;5004645;28;20092;-75
2021/06/08 03:19:14;;;;;;;7.18;4.00;;;;;;;20.74;53.26;101969.22;5036157;28;20054;-76
2021/06/08 03:21:43;;;;;;;6.97;3.80;;;;;;;20.71;53.21;101957.81;5018995;28;20073;-76
2021/06/08 03:24:14;;;;;;;7.20;3.90;;;;;;;20.75;53.31;101965.50;5034425;28;20044;-75
2021/06/08 03:26:43;;;;;;;6.20;3.60;;;;;;;20.74;53.62;101962.00;5035037;28;20041;-76
2021/06/08 03:29:12;;;;;;;7.97;3.85;;;;;;;20.74;53.45;101972.78;5018377;28;20140;-76
2021/06/08 03:31:42;;;;;;;6.30;3.60;;;;;;;20.73;53.45;101967.56;5000466;28;20482;-75
2021/06/08 03:34:15;;;;;;;6.80;3.75;;;;;;;20.73;53.52;101960.31;5018638;28;20084;-75
2021/06/08 03:36:52;;;;;;;6.85;3.90;;;;;;;20.73;53.60;101971.09;5034575;28;20521;-75
2021/06/08 03:39:20;;;;;;;6.90;3.85;;;;;;;20.73;53.64;101968.41;5035307;28;20454;-75
2021/06/08 03:41:48;;;;;;;7.50;3.85;;;;;;;20.75;53.25;101970.91;5034596;28;20049;-75
2021/06/08 03:44:17;;;;;;;6.97;3.83;;;;;;;20.74;53.43;101980.00;5017873;28;20040;-76
2021/06/08 03:46:45;;;;;;;7.07;3.80;;;;;;;20.73;53.33;101971.09;5034881;28;20041;-76
2021/06/08 03:49:14;;;;;;;7.10;4.03;;;;;;;20.74;53.48;101977.31;5034142;28;20103;-76
2021/06/08 03:51:42;;;;;;;6.95;3.78;;;;;;;20.73;53.69;101973.78;5017375;28;20464;-75
2021/06/08 03:54:11;;;;;;;7.00;3.88;;;;;;;20.74;53.44;101975.47;5034147;28;20073;-75
2021/06/08 03:56:43;;;;;;;7.35;3.80;;;;;;;20.73;53.69;101973.78;5017821;28;20050;-75
2021/06/08 03:59:12;;;;;;;7.53;4.07;;;;;;;20.74;53.49;101974.63;5035269;28;20045;-75
2021/06/08 04:01:40;;;;;;;7.82;4.22;;;;;;;20.73;53.46;101976.50;5016050;28;20525;-76
2021/06/08 04:04:08;;;;;;;7.80;4.10;;;;;;;20.73;53.26;101978.34;5033310;28;20042;-76
2021/06/08 04:06:36;;;;;;;7.22;3.72;;;;;;;20.68;53.64;101976.22;5033644;28;20540;-75
2021/06/08 04:09:04;;;;;;;6.97;3.90;;;;;;;20.75;53.37;101987.09;5001624;28;20386;-75
2021/06/08 04:11:31;;;;;;;6.95;3.80;;;;;;;20.69;53.33;101973.34;5033995;28;20045;-76
2021/06/08 04:13:58;;;;;;;6.90;3.70;;;;;;;20.73;53.46;101987.28;5001314;28;20047;-75
2021/06/08 04:16:25;;;;;;;7.50;4.07;;;;;;;20.75;53.48;101979.81;5017591;28;20123;-76
2021/06/08 04:18:53;;;;;;;8.05;3.67;;;;;;;20.75;53.34;101979.81;5034654;28;20414;-75
2021/06/08 04:21:24;;;;;;;7.22;3.80;;;;;;;20.75;53.66;101985.22;5033335;28;20100;-76
2021/06/08 04:23:55;;;;;;;;;;;;;;;20.74;53.48;101986.25;5034267;28;20041;-76
2021/06/08 04:26:23;;;;;;;6.93;3.65;;;;;;;20.75;53.41;101982.53;5032247;28;19971;-76
2021/06/08 04:28:50;;;;;;;6.95;3.92;;;;;;;20.75;53.38;101982.53;5032575;28;20521;-76
2021/06/08 04:31:17;;;;;;;6.93;3.72;;;;;;;20.74;53.04;101988.09;5032670;28;20452;-75
2021/06/08 04:33:46;;;;;;;6.07;3.65;;;;;;;20.74;53.33;101974.63;5033540;28;20048;-75
2021/06/08 04:36:13;;;;;;;6.82;3.90;;;;;;;20.75;53.26;101984.38;5017453;28;20072;-75
2021/06/08 04:38:40;;;;;;;6.70;3.70;;;;;;;20.75;53.44;101984.38;5033397;28;20049;-75
2021/06/08 04:41:08;;;;;;;8.10;3.90;;;;;;;20.75;53.53;101984.38;5033430;28;20434;-76
2021/06/08 04:43:35;;;;;;;7.63;4.22;;;;;;;20.76;53.36;101986.06;5033008;28;20041;-76
2021/06/08 04:46:05;;;;;;;7.75;3.88;;;;;;;20.76;53.47;101983.38;5000394;28;20056;-75
2021/06/08 04:48:32;;;;;;;7.05;3.83;;;;;;;20.75;53.57;101984.38;5016728;28;20107;-75
2021/06/08 04:51:00;;;;;;;7.07;3.60;;;;;;;20.76;53.27;101984.19;5024042;28;20045;-75
2021/06/08 04:53:27;;;;;;;7.25;3.80;;;;;;;20.75;53.39;101979.81;5032911;28;20046;-75
2021/06/08 04:55:54;;;;;;;7.20;4.00;;;;;;;20.73;53.22;101972.97;5033046;28;20038;-76
2021/06/08 04:58:21;;;;;;;6.88;3.53;;;;;;;20.76;53.48;101984.19;4999995;28;20049;-75
2021/06/08 05:04:11;;;;;;;7.13;3.80;;;;;;;20.76;53.41;101977.97;5094477;27;20958;-75
2021/06/08 05:06:45;;;;;;;6.97;3.80;;;;;;;20.77;53.26;101979.63;5076196;28;20377;-75
2021/06/08 05:09:17;;;;;;;7.13;3.85;;;;;;;20.75;53.50;101962.81;5076095;28;20071;-75
2021/06/08 05:11:50;;;;;;;6.47;3.55;;;;;;;20.79;53.37;101982.97;5076467;28;20036;-75
2021/06/08 05:14:17;;;;;;;6.53;3.45;;;;;;;20.75;53.17;101973.59;5076552;28;20039;-75
2021/06/08 05:16:46;;;;;;;7.00;3.85;;;;;;;20.78;53.20;101975.94;5092713;28;20039;-75
2021/06/08 05:19:15;;;;;;;6.65;3.47;;;;;;;20.80;53.28;101990.88;5092680;28;20043;-75
2021/06/08 05:21:43;;;;;;;6.70;3.55;;;;;;;20.76;53.10;101980.69;5110891;28;20040;-76
2021/06/08 05:24:12;;;;;;;6.68;3.78;;;;;;;20.78;53.28;101986.72;5059736;28;20039;-75
2021/06/08 05:26:41;;;;;;;7.10;3.67;;;;;;;20.79;53.30;101989.22;5050272;28;20060;-75
2021/06/08 05:29:10;;;;;;;7.03;3.78;;;;;;;20.79;53.22;101989.22;5092661;28;20451;-75
2021/06/08 05:31:37;;;;;;;9.15;3.72;;;;;;;20.78;53.21;101987.53;5090181;28;20046;-75
2021/06/08 05:34:04;;;;;;;7.78;3.90;;;;;;;20.80;53.24;101987.34;5075624;28;20104;-75
2021/06/08 05:36:34;;;;;;;7.85;3.50;;;;;;;20.75;53.26;101987.09;5110010;28;20442;-75
2021/06/08 05:39:02;;;;;;;6.82;3.58;;;;;;;20.80;53.15;101996.28;5059315;28;20058;-75
2021/06/08 05:41:29;;;;;;;6.68;3.70;;;;;;;20.81;53.27;101997.09;5110224;28;20059;-75
2021/06/08 05:43:56;;;;;;;6.60;3.58;;;;;;;20.81;53.34;102002.50;5110561;28;20397;-75
2021/06/08 05:46:25;;;;;;;6.57;3.60;;;;;;;20.79;53.45;101993.75;5074302;28;20075;-75
2021/06/08 05:48:52;;;;;;;6.93;3.40;;;;;;;20.80;53.48;101998.13;5110033;28;20044;-75
2021/06/08 05:51:20;;;;;;;6.53;3.55;;;;;;;20.80;53.28;102000.84;5092096;28;20503;-75
2021/06/08 05:53:47;;;;;;;6.40;3.58;;;;;;;20.81;53.34;102000.66;5110055;28;20059;-76
2021/06/08 05:56:15;;;;;;;7.20;3.60;;;;;;;20.77;53.32;101993.13;5091927;28;20555;-76
2021/06/08 05:58:42;;;;;;;6.88;3.75;;;;;;;20.81;53.36;101999.78;5091941;28;20089;-75
2021/06/08 06:01:10;;;;;;;7.18;3.60;;;;;;;20.79;53.49;101997.31;5108075;28;20040;-75
2021/06/08 06:03:39;;;;;;;6.70;3.70;;;;;;;20.79;53.46;101997.31;5074396;28;20048;-75
2021/06/08 06:06:07;;;;;;;7.50;3.78;;;;;;;20.77;53.24;101996.63;5089700;28;20115;-75
2021/06/08 06:08:35;;;;;;;6.88;3.60;;;;;;;20.82;53.71;101998.78;5091211;28;20446;-76
2021/06/08 06:11:05;;;;;;;12.95;3.80;;;;;;;20.83;53.57;102000.44;5074799;28;20075;-75
2021/06/08 06:13:40;;;;;;;9.40;3.60;;;;;;;20.80;53.58;102000.84;5087260;28;20101;-76
2021/06/08 06:16:09;;;;;;;6.45;3.22;;;;;;;20.80;53.55;101993.56;5078021;28;20036;-76
2021/06/08 06:18:38;;;;;;;6.70;3.30;;;;;;;20.83;53.49;102008.53;5045166;28;20127;-76
2021/06/08 06:21:06;;;;;;;7.05;3.50;;;;;;;20.81;53.50;102003.34;5061541;28;20040;-75
2021/06/08 06:23:34;;;;;;;7.40;3.80;;;;;;;20.81;53.48;102008.75;5061154;28;20064;-75
2021/06/08 06:26:02;;;;;;;7.50;3.67;;;;;;;20.80;53.44;102015.16;5074957;28;20051;-75
2021/06/08 06:28:29;;;;;;;7.35;3.95;;;;;;;20.83;53.29;102019.31;5061173;28;20047;-75
2021/06/08 06:30:57;;;;;;;6.72;3.75;;;;;;;20.84;53.46;102021.00;5043118;28;20044;-75
2021/06/08 06:33:24;;;;;;;6.60;3.60;;;;;;;20.85;53.18;102014.59;5095748;28;20066;-75
2021/06/08 06:35:55;;;;;;;7.43;3.67;;;;;;;20.84;53.23;102013.72;5077855;28;20376;-76
2021/06/08 06:38:23;;;;;;;9.57;3.95;;;;;;;20.85;53.40;102007.31;5061066;28;20138;-75
2021/06/08 06:40:50;;;;;;;6.60;3.60;;;;;;;20.85;53.22;102019.97;5077780;28;20530;-75
2021/06/08 06:43:24;;;;;;;7.38;3.78;;;;;;;20.86;53.09;102010.84;5077905;28;20446;-75
2021/06/08 06:45:52;;;;;;;8.65;3.88;;;;;;;20.87;53.33;102012.53;5077395;28;20036;-75
2021/06/08 06:48:20;;;;;;;7.20;3.63;;;;;;;20.88;53.16;102011.47;5077390;28;20036;-75
2021/06/08 06:50:50;;;;;;;7.30;3.67;;;;;;;20.88;53.21;102016.88;5060617;28;20055;-75
2021/06/08 06:53:18;;;;;;;6.90;3.58;;;;;;;20.87;53.28;102010.66;5091825;28;20472;-76
2021/06/08 06:55:47;;;;;;;7.07;3.85;;;;;;;20.87;53.30;102012.53;5077749;28;20047;-75
2021/06/08 06:58:17;;;;;;;9.02;3.55;;;;;;;20.86;53.44;102010.84;5076508;28;20040;-73
2021/06/08 07:00:45;;;;;;;9.90;3.60;;;;;;;20.85;53.27;102010.00;5074443;28;20478;-74
2021/06/08 07:03:14;;;;;;;6.10;3.30;;;;;;;20.93;53.27;102021.72;5094831;28;20550;-75
2021/06/08 07:05:44;;;;;;;8.05;3.90;;;;;;;20.93;53.28;102014.44;5040151;28;20048;-76
2021/06/08 07:08:14;;;;;;;7.57;3.90;;;;;;;20.95;53.41;102016.94;5059381;28;20181;-74
2021/06/08 07:10:41;;;;;;;12.25;4.43;;;;;;;20.89;53.58;102029.34;5059475;28;20051;-73
2021/06/08 07:13:11;;;;;;;8.13;4.90;;;;;;;20.89;53.65;102024.78;5076698;28;20032;-73
2021/06/08 07:15:38;;;;;;;10.60;5.30;;;;;;;20.93;53.68;102024.41;5093483;28;20158;-74
2021/06/08 07:18:05;;;;;;;12.18;6.13;;;;;;;20.92;53.65;102034.38;5048013;28;20505;-73
2021/06/08 07:20:34;;;;;;;12.20;6.82;;;;;;;20.93;53.60;102025.22;5076665;28;20098;-73
2021/06/08 07:23:01;;;;;;;12.93;7.13;;;;;;;20.88;53.69;102025.81;5091452;28;20036;-73
2021/06/08 07:25:35;;;;;;;13.23;7.45;;;;;;;20.92;53.75;102020.03;5042287;28;20043;-73
2021/06/08 07:28:05;;;;;;;14.90;7.47;;;;;;;20.92;53.93;102022.72;5075753;28;20039;-73
2021/06/08 07:30:34;;;;;;;15.52;8.05;;;;;;;20.90;53.80;102023.75;5073865;28;20130;-73
2021/06/08 07:35:54;;;;;;;15.68;8.32;;;;;;;20.92;54.01;102022.72;4600652;27;15014998;-73
2021/06/08 07:38:31;;;;;;;16.00;8.27;;;;;;;20.92;54.18;102028.13;5114914;28;20121;-74
2021/06/08 07:41:03;;;;;;;14.77;8.82;;;;;;;20.92;54.21;102031.66;5127751;28;20446;-74
2021/06/08 07:43:35;;;;;;;17.10;9.05;;;;;;;20.88;54.21;102023.13;5131160;27;20074;-73
2021/06/08 07:46:10;;;;;;;16.70;8.75;;;;;;;20.89;54.37;102035.56;5129436;28;20043;-73
2021/06/08 07:48:41;;;;;;;17.08;8.45;;;;;;;20.85;54.31;102030.75;5096058;28;20052;-74
2021/06/08 07:51:09;;;;;;;15.23;9.30;;;;;;;20.88;54.45;102035.75;5096392;28;20070;-74
2021/06/08 07:53:36;;;;;;;19.25;9.80;;;;;;;20.82;54.55;102028.44;5125899;27;20078;-74
2021/06/08 07:56:05;;;;;;;19.15;9.35;;;;;;;20.87;54.45;102028.72;5109422;28;20047;-74
2021/06/08 07:58:32;;;;;;;18.58;9.70;;;;;;;20.92;54.37;102036.22;5126743;28;20039;-74
2021/06/08 08:00:59;;;;;;;16.77;9.65;;;;;;;20.91;54.34;102043.47;5125321;27;20123;-74
2021/06/08 08:03:28;;;;;;;14.93;8.88;;;;;;;20.93;54.29;102036.03;5123590;27;20042;-74
2021/06/08 08:05:59;;;;;;;16.67;9.27;;;;;;;20.94;54.33;102036.84;5102995;28;20043;-73
2021/06/08 08:08:27;;;;;;;17.35;9.43;;;;;;;20.96;54.35;102040.22;5114774;27;20119;-74
2021/06/08 08:10:55;;;;;;;16.65;9.27;;;;;;;20.94;54.33;102026.06;5112551;28;20055;-73
2021/06/08 08:13:25;;;;;;;17.67;9.02;;;;;;;20.99;54.30;102037.97;5082778;28;20062;-75
2021/06/08 08:16:03;;;;;;;16.23;9.95;;;;;;;20.97;54.39;102040.00;5095399;28;20041;-74
2021/06/08 08:18:34;;;;;;;16.50;9.32;;;;;;;20.96;54.26;102032.94;5129067;28;20458;-75
2021/06/08 08:21:06;;;;;;;17.80;9.27;;;;;;;20.94;54.13;102028.75;5120586;28;20043;-74
2021/06/08 08:23:35;;;;;;;15.73;9.63;;;;;;;20.99;54.22;102035.28;5107704;28;20385;-75
2021/06/08 08:26:05;;;;;;;15.82;10.05;;;;;;;20.99;54.29;102039.81;5119661;28;20507;-75
2021/06/08 08:28:33;;;;;;;14.75;9.55;;;;;;;20.99;54.19;102042.50;5125046;28;20459;-75
2021/06/08 08:31:04;;;;;;;16.38;9.15;;;;;;;21.02;53.88;102034.03;5124892;28;20084;-75
2021/06/08 08:33:31;;;;;;;15.55;9.57;;;;;;;21.01;54.04;102035.91;5110984;28;20042;-75
2021/06/08 08:36:00;;;;;;;16.40;10.25;;;;;;;21.00;54.27;102036.94;5137794;27;20407;-75
2021/06/08 08:38:30;;;;;;;15.40;9.70;;;;;;;21.03;54.08;102024.94;5127018;27;20042;-75
2021/06/08 08:40:59;;;;;;;18.55;10.18;;;;;;;21.02;54.13;102020.56;5125769;27;20138;-75
2021/06/08 08:43:44;;;;;;;18.23;11.27;;;;;;;21.01;54.10;102022.44;5150285;27;20089;-73
2021/06/08 08:46:12;;;;;;;17.15;9.90;;;;;;;21.03;54.08;102028.47;5121385;27;20039;-73
2021/06/08 08:48:41;;;;;;;20.15;10.82;;;;;;;21.01;54.35;102019.72;5099215;27;20031;-73
2021/06/08 08:51:12;;;;;;;19.60;10.52;;;;;;;21.07;53.96;102016.25;5099483;27;20088;-72
2021/06/08 08:53:40;;;;;;;15.30;9.88;;;;;;;21.10;53.97;102012.31;5101510;27;20407;-72
2021/06/08 08:56:23;;;;;;;18.00;10.57;;;;;;;21.12;53.84;102006.72;5106500;28;20105;-73
2021/06/08 08:58:51;;;;;;;17.00;11.00;;;;;;;21.11;54.11;102007.78;5095476;27;20040;-73
2021/06/08 09:01:19;;;;;;;21.52;10.40;;;;;;;21.07;54.08;102001.94;5115480;27;20114;-73
2021/06/08 09:03:47;;;;;;;15.95;9.77;;;;;;;21.10;53.94;102004.22;5115938;27;20146;-73
2021/06/08 09:06:16;;;;;;;17.63;9.80;;;;;;;21.07;53.87;102000.06;5114364;27;20126;-72
2021/06/08 09:08:43;;;;;;;17.55;9.85;;;;;;;21.11;53.72;102005.09;5106291;27;20051;-73
2021/06/08 09:11:11;;;;;;;20.63;9.20;;;;;;;21.12;53.50;102001.34;5134217;27;20506;-73
2021/06/08 09:13:40;;;;;;;14.80;9.57;;;;;;;21.12;53.81;102002.19;5084169;27;20055;-73
2021/06/08 09:16:09;;;;;;;14.82;8.40;;;;;;;21.14;53.37;102000.13;5134913;27;20056;-72
2021/06/08 09:18:37;;;;;;;14.07;8.38;;;;;;;21.18;53.30;101993.31;5133409;27;20043;-72
2021/06/08 09:21:16;;;;;;;13.65;8.10;;;;;;;21.19;53.02;101997.69;5083891;27;20047;-72
2021/06/08 09:23:43;;;;;;;13.85;7.68;;;;;;;21.20;52.68;101999.34;5095489;27;20487;-73
2021/06/08 09:26:10;;;;;;;13.23;6.80;;;;;;;21.23;52.49;101998.97;5117399;27;20071;-73
2021/06/08 09:28:38;;;;;;;11.25;7.05;;;;;;;21.16;52.32;101984.59;5133809;27;20047;-73
2021/06/08 09:31:23;;;;;;;12.18;6.63;;;;;;;21.23;52.29;101995.44;5114477;27;20507;-73
2021/06/08 09:33:53;;;;;;;11.57;6.38;;;;;;;21.23;51.92;101990.88;5090017;28;20082;-72
2021/06/08 09:36:24;;;;;;;13.18;6.30;;;;;;;21.22;51.95;101991.06;5108908;28;20465;-74
2021/06/08 09:38:54;;;;;;;11.73;6.30;;;;;;;21.15;51.53;101982.06;5112571;27;20047;-74
2021/06/08 09:44:02;;;;;;;14.95;5.57;;;;;;;;;;5101745;27;20140;-74
2021/06/08 09:46:42;;;;;;;14.63;5.57;;;;;;;21.13;51.09;101986.84;5080828;28;20040;-73
2021/06/08 09:49:10;;;;;;;13.38;5.97;;;;;;;21.17;51.16;101983.53;5068114;28;20044;-74
2021/06/08 09:51:59;;;;;;;11.00;5.13;;;;;;;21.17;51.04;101982.72;5078549;28;20048;-74
2021/06/08 09:54:40;;;;;;;11.85;6.22;;;;;;;21.19;50.94;101984.22;5072657;28;20082;-73
2021/06/08 09:57:26;;;;;;;;;;;;;;;21.23;50.99;101984.66;5057886;28;20072;-73
2021/06/08 10:02:48;;;;;;;13.65;8.18;;;;;;;21.26;50.85;101979.66;5112874;27;20868;-72
2021/06/08 10:05:25;;;;;;;11.27;7.60;;;;;;;21.27;51.15;101984.03;5092682;28;20459;-72
2021/06/08 10:10:41;;;;;;;13.00;7.55;;;;;;;21.29;50.86;101971.19;5165338;27;20158;-73
2021/06/08 10:13:15;;;;;;;13.02;7.40;;;;;;;21.29;51.07;101971.19;5015330;28;20114;-73
2021/06/08 10:18:19;;;;;;;14.10;8.57;;;;;;;21.28;51.21;101966.84;5111490;27;20392;-75
2021/06/08 10:20:52;;;;;;;18.02;8.60;;;;;;;21.28;51.11;101971.38;5101423;28;20028;-74
2021/06/08 10:23:29;;;;;;;15.02;8.00;;;;;;;21.28;51.30;101968.69;5111190;28;20051;-74
2021/06/08 10:25:58;;;;;;;16.52;8.13;;;;;;;21.30;51.04;101972.03;5130199;28;20510;-74
2021/06/08 10:28:27;;;;;;;15.98;7.50;;;;;;;21.34;51.00;101964.38;5078467;28;20043;-75
2021/06/08 10:30:56;;;;;;;14.30;8.85;;;;;;;21.38;50.82;101965.66;5097981;28;20577;-75
2021/06/08 10:33:31;;;;;;;13.70;8.40;;;;;;;21.35;51.02;101966.03;5088387;28;20035;-74
2021/06/08 10:36:08;;;;;;;14.50;8.90;;;;;;;21.44;50.37;101968.38;5087115;28;20800;-73
2021/06/08 10:38:35;;;;;;;14.52;9.13;;;;;;;21.49;49.90;101962.44;5128842;28;20114;-73
2021/06/08 10:41:02;;;;;;;13.95;8.80;;;;;;;21.51;49.85;101963.09;5127264;27;20040;-74
2021/06/08 10:43:33;;;;;;;12.50;8.40;;;;;;;21.54;49.94;101961.84;5094106;28;20492;-75
2021/06/08 10:46:00;;;;;;;13.70;9.27;;;;;;;21.58;49.96;101963.13;5095288;28;20051;-74
2021/06/08 10:48:37;;;;;;;13.82;8.25;;;;;;;21.55;49.57;101961.66;5076312;28;20289;-74
2021/06/08 10:51:12;;;;;;;15.27;8.45;;;;;;;21.52;50.12;101964.75;5126167;28;20492;-75
2021/06/08 10:53:43;;;;;;;12.50;8.18;;;;;;;21.46;49.80;101960.97;5111064;28;20052;-75
2021/06/08 10:56:31;;;;;;;12.23;7.40;;;;;;;21.47;49.94;101962.63;5074784;28;20518;-74
2021/06/08 10:59:03;;;;;;;12.18;7.93;;;;;;;21.47;49.57;101968.03;5091209;28;20155;-75
2021/06/08 11:01:39;;;;;;;15.77;8.10;;;;;;;21.44;49.52;101964.88;5117119;28;20399;-74
2021/06/08 11:04:08;;;;;;;12.95;7.47;;;;;;;21.44;49.46;101963.00;5102853;28;20046;-74
2021/06/08 11:06:49;;;;;;;11.63;7.47;;;;;;;21.47;49.38;101964.50;5101659;27;20547;-75
2021/06/08 11:14:55;;;;;;;20.10;8.07;;;;;;;21.52;49.86;101962.06;5086119;27;20491;-73
2021/06/08 11:17:39;;;;;;;16.63;8.35;;;;;;;21.49;49.52;101961.63;5051349;28;20034;-73
2021/06/08 11:20:18;;;;;;;16.17;7.47;;;;;;;21.56;49.60;101967.91;5063643;28;20547;-73
2021/06/08 11:22:52;;;;;;;16.00;7.95;;;;;;;21.55;49.85;101963.53;5065872;28;20120;-72
2021/06/08 11:25:38;;;;;;;19.27;8.77;;;;;;;21.54;49.88;101960.00;5060645;28;20041;-72
2021/06/08 11:28:09;;;;;;;15.40;8.15;;;;;;;21.55;50.02;101966.22;5047768;28;21540;-72
2021/06/08 11:30:40;;;;;;;23.27;8.60;;;;;;;21.53;49.87;101971.00;5064393;28;20048;-72
2021/06/08 11:33:26;;;;;;;17.05;9.57;;;;;;;21.51;49.92;101963.09;5033584;28;20041;-72
2021/06/08 11:35:59;;;;;;;20.00;9.10;;;;;;;21.49;50.08;101962.44;5071242;28;20099;-72
2021/06/08 11:38:29;;;;;;;15.85;8.50;;;;;;;21.46;50.27;101955.56;5065306;28;20051;-72
2021/06/08 11:40:58;;;;;;;15.25;9.15;;;;;;;21.46;50.34;101962.84;5067183;28;20053;-72
2021/06/08 11:46:12;;;;;;;13.57;8.68;;;;;;;21.48;50.51;101960.75;5129126;27;20107;-72
2021/06/08 11:48:43;;;;;;;15.82;9.52;;;;;;;21.62;50.28;101959.81;5083486;28;20118;-72
2021/06/08 11:51:34;;;;;;;21.15;11.60;;;;;;;21.67;51.44;101957.38;5116816;28;20112;-72
2021/06/08 11:54:14;;;;;;;22.60;12.15;;;;;;;21.69;50.86;101956.34;5127631;28;20036;-73
2021/06/08 11:56:50;;;;;;;17.98;11.23;;;;;;;21.71;50.64;101941.59;5124634;28;20068;-75
2021/06/08 11:59:21;;;;;;;21.13;12.63;;;;;;;21.69;51.00;101945.56;5110665;28;20518;-75
2021/06/08 12:01:53;;;;;;;17.52;11.63;;;;;;;21.70;50.92;101953.44;5126728;28;20043;-74
2021/06/08 12:04:20;;;;;;;19.52;11.40;;;;;;;21.70;51.06;101939.09;5108891;28;20126;-73